Nearby METAR Reports

This page may be slow to load as it queries the National Weather Service for data.

KBIS - Bismarck, North Dakota, USA
Distance from station: S 10mi, 15km
Updated: Wed, 13-Nov-2019 6:52pm CST
Clear
Clear
 Wind from WNW
Wind: WNW 6 mph , 9 km/h
Temperature: 25°F , -4°C
Wind Chill: 18°F , -8°C
Dew Point: 16°F , -9°C
Humidity: 69%
Barometer: 30.11 inHg , 1019.6 hPa
Clouds: Clear
Visibility: 10 miles , 16 km
2019/11/14 00:52 KBIS 140052Z 30005KT 10SM CLR M04/M09 A3011 RMK AO2 SLP220 T10441094
KDIK - Dickinson, North Dakota, USA
Distance from station: W 95mi, 154km
Updated: Wed, 13-Nov-2019 5:56pm CST
Clear
Clear
 Wind from WNW
Wind: WNW 8 mph , 13 km/h
Temperature: 25°F , -4°C
Wind Chill: 16°F , -9°C
Dew Point: 19°F , -7°C
Humidity: 80%
Barometer: 30.07 inHg , 1018.3 hPa
Clouds: Clear
Visibility: 10 miles , 16 km
2019/11/13 23:56 KDIK 132356Z AUTO 30007KT 10SM CLR M04/M07 A3007 RMK AO2 SLP214 T10391067 10006 21039 53018
 
KISN - Williston, North Dakota, USA
Distance from station: NNW 2mi, 2km
Updated: Fri, 18-Oct-2019 8:53am CDT
NOT Current

 
2019/10/18 13:53 KISN 181353Z AUTO RMK AO2 SLPNO PWINO FZRANO TSNO PNO $
KFAR - Fargo, North Dakota, USA
Distance from station: NNW 4mi, 7km
Updated: Wed, 13-Nov-2019 6:53pm CST
Overcast
Overcast
 Wind from NNW
Wind: NNW 8 mph , 13 km/h
Temperature: 21°F , -6°C
Wind Chill: 11°F , -12°C
Dew Point: 14°F , -10°C
Humidity: 74%
Barometer: 30.10 inHg , 1019.3 hPa
Clouds: Overcast
Visibility: 10 miles , 16 km
Cloud details: Overcast 3000 ft
2019/11/14 00:53 KFAR 140053Z 33007KT 10SM OVC030 M06/M10 A3010 RMK AO2 SLP209 T10611100
 
KGFK - Grand Forks, North Dakota, USA
Distance from station: NNW 76mi, 123km
Updated: Wed, 13-Nov-2019 6:53pm CST
Partly cloudy
Partly cloudy
 Wind from N
Wind: N 9 mph , 15 km/h
Temperature: 12°F , -11°C
Wind Chill: -0°F , -18°C
Dew Point: 7°F , -14°C
Humidity: 79%
Barometer: 30.12 inHg , 1020 hPa
Clouds: Partly cloudy
Visibility: 10 miles , 16 km
Cloud details: Partly cloudy 3200 ft
2019/11/14 00:53 KGFK 140053Z 35008KT 10SM SCT032 M11/M14 A3012 RMK AO2 SLP218 T11061144
KMOT - Minot, North Dakota, USA
Distance from station: E 109mi, 175km
Updated: Wed, 13-Nov-2019 5:54pm CST
Clear
Clear
 Wind from WNW
Wind: WNW 7 mph , 11 km/h
Temperature: 19°F , -7°C
Wind Chill: 10°F , -12°C
Dew Point: 12°F , -11°C
Humidity: 73%
Barometer: 30.07 inHg , 1018.3 hPa
Clouds: Clear
Visibility: 10 miles , 16 km
2019/11/13 23:54 KMOT 132354Z 29006KT 10SM CLR M07/M11 A3007 RMK AO2 SLP213 T10721111 11028 21072 51014